createdAt,value
2023-05-06T00:01:20.826Z,99.90
2023-05-06T00:03:48.405Z,99.90
2023-05-06T00:06:15.554Z,99.90
2023-05-06T00:08:42.502Z,99.90
2023-05-06T00:11:09.868Z,99.90
2023-05-06T00:13:37.914Z,99.90
2023-05-06T00:16:05.484Z,99.90
2023-05-06T00:18:32.423Z,99.90
2023-05-06T00:20:59.480Z,99.90
2023-05-06T00:23:26.364Z,99.90
2023-05-06T00:25:54.802Z,99.90
2023-05-06T00:28:21.821Z,99.90
2023-05-06T00:30:48.695Z,99.90
2023-05-06T00:33:15.505Z,99.90
2023-05-06T00:35:42.589Z,99.90
2023-05-06T00:38:11.800Z,99.90
2023-05-06T00:40:38.961Z,99.90
2023-05-06T00:43:06.083Z,99.90
2023-05-06T00:45:33.422Z,99.90
2023-05-06T00:48:00.773Z,99.90
2023-05-06T00:50:28.567Z,99.90
2023-05-06T00:52:58.312Z,99.90
2023-05-06T00:55:26.228Z,99.90
2023-05-06T00:57:54.340Z,99.90
2023-05-06T01:00:21.563Z,99.90
2023-05-06T01:02:49.352Z,99.90
2023-05-06T01:05:19.017Z,99.90
2023-05-06T01:08:00.710Z,99.90
2023-05-06T01:10:46.246Z,99.90
2023-05-06T01:13:19.792Z,99.90
2023-05-06T01:15:52.530Z,99.90
2023-05-06T01:18:23.222Z,99.90
2023-05-06T01:20:53.893Z,99.90
2023-05-06T01:23:20.891Z,99.90
2023-05-06T01:25:47.721Z,99.90
2023-05-06T01:28:14.989Z,99.90
2023-05-06T01:30:57.283Z,99.90
2023-05-06T01:33:29.753Z,99.90
2023-05-06T01:36:20.015Z,99.90
2023-05-06T01:39:03.155Z,99.90
2023-05-06T01:41:33.461Z,99.90
2023-05-06T01:44:03.380Z,99.90
2023-05-06T01:46:32.065Z,99.90
2023-05-06T01:49:04.092Z,99.90
2023-05-06T01:51:33.906Z,99.90
2023-05-06T01:54:02.088Z,99.90
2023-05-06T01:56:31.112Z,99.90
2023-05-06T01:58:59.526Z,99.90
2023-05-06T02:01:26.815Z,99.90
2023-05-06T02:03:53.888Z,99.90
2023-05-06T02:06:20.908Z,99.90
2023-05-06T02:08:48.746Z,99.90
2023-05-06T02:11:15.698Z,99.90
2023-05-06T02:13:42.638Z,99.90
2023-05-06T02:16:09.565Z,99.90
2023-05-06T02:18:38.016Z,99.90
2023-05-06T02:21:08.255Z,99.90
2023-05-06T02:23:35.125Z,99.90
2023-05-06T02:26:01.940Z,99.90
2023-05-06T02:28:28.751Z,99.90
2023-05-06T02:30:57.675Z,99.90
2023-05-06T02:33:26.710Z,99.90
2023-05-06T02:35:53.542Z,99.90
2023-05-06T02:38:22.471Z,99.90
2023-05-06T02:40:49.575Z,99.90
2023-05-06T02:43:16.368Z,99.90
2023-05-06T02:45:43.195Z,99.90
2023-05-06T02:48:10.063Z,99.90
2023-05-06T02:50:37.101Z,99.90
2023-05-06T02:53:04.009Z,99.90
2023-05-06T02:55:31.884Z,99.90
2023-05-06T02:57:58.698Z,99.90
2023-05-06T04:01:14.901Z,99.90
2023-05-06T04:03:41.711Z,99.90
2023-05-06T04:06:08.541Z,99.90
2023-05-06T04:08:35.283Z,99.90
2023-05-06T04:11:06.358Z,99.90
2023-05-06T04:13:34.155Z,99.90
2023-05-06T04:16:01.719Z,99.90
2023-05-06T04:18:28.721Z,99.90
2023-05-06T04:20:55.601Z,99.90
2023-05-06T04:23:22.337Z,99.90
2023-05-06T04:25:49.359Z,99.90
2023-05-06T04:28:16.942Z,99.90
2023-05-06T04:30:44.777Z,99.90
2023-05-06T04:33:11.851Z,99.90
2023-05-06T04:35:39.851Z,99.90
2023-05-06T04:38:06.744Z,99.90
2023-05-06T04:40:36.511Z,99.90
2023-05-06T04:43:03.379Z,99.90
2023-05-06T04:45:30.353Z,99.90
2023-05-06T04:47:57.151Z,99.90
2023-05-06T04:50:24.001Z,99.90
2023-05-06T04:52:50.772Z,99.90
2023-05-06T04:55:17.704Z,99.90
2023-05-06T04:57:44.579Z,99.90
2023-05-06T05:00:11.839Z,99.90
2023-05-06T05:02:38.909Z,99.90
2023-05-06T05:05:06.154Z,99.90
2023-05-06T05:07:32.870Z,99.90
2023-05-06T05:09:59.739Z,99.90
2023-05-06T05:12:26.482Z,99.90
2023-05-06T05:14:53.263Z,99.90
2023-05-06T05:17:20.095Z,99.90
2023-05-06T05:19:46.778Z,99.90
2023-05-06T05:22:13.566Z,99.90
2023-05-06T05:24:40.606Z,99.90
2023-05-06T05:27:07.637Z,99.90
2023-05-06T05:29:34.488Z,99.90
2023-05-06T05:32:01.341Z,99.90
2023-05-06T05:34:28.217Z,99.90
2023-05-06T05:36:54.957Z,99.90
2023-05-06T05:39:21.717Z,99.90
2023-05-06T05:41:48.515Z,99.90
2023-05-06T05:44:15.871Z,99.90
2023-05-06T05:46:42.836Z,99.90
2023-05-06T05:49:09.642Z,99.90
2023-05-06T05:51:36.365Z,99.90
2023-05-06T05:54:03.204Z,99.90
2023-05-06T05:56:29.977Z,99.90
2023-05-06T05:58:59.468Z,99.90
2023-05-06T06:01:27.308Z,99.90
2023-05-06T06:03:55.046Z,99.90
2023-05-06T06:06:22.296Z,99.90
2023-05-06T06:08:49.240Z,99.90
2023-05-06T06:11:16.872Z,99.90
2023-05-06T06:13:47.085Z,99.90
2023-05-06T06:16:14.710Z,99.90
2023-05-06T06:18:41.683Z,99.90
2023-05-06T06:21:08.570Z,99.90
2023-05-06T06:23:35.494Z,99.90
2023-05-06T06:26:04.612Z,99.90
2023-05-06T06:28:31.566Z,99.90
2023-05-06T06:30:58.431Z,99.90
2023-05-06T06:33:25.336Z,99.90
2023-05-06T06:35:52.067Z,99.90
2023-05-06T06:38:18.888Z,99.90
2023-05-06T06:40:45.923Z,99.90
2023-05-06T06:43:12.670Z,99.90
2023-05-06T06:45:39.550Z,99.90
2023-05-06T06:48:06.558Z,99.90
2023-05-06T06:50:33.460Z,99.90
2023-05-06T06:53:00.369Z,99.90
2023-05-06T06:55:27.137Z,99.90
2023-05-06T06:57:53.946Z,99.90
2023-05-06T07:00:20.693Z,99.90
2023-05-06T07:02:48.582Z,99.90
2023-05-06T07:05:15.887Z,99.90
2023-05-06T07:07:42.743Z,99.90
2023-05-06T07:10:09.992Z,99.90
2023-05-06T07:12:36.885Z,99.90
2023-05-06T07:15:07.132Z,99.90
2023-05-06T07:17:34.158Z,99.90
2023-05-06T07:20:01.380Z,99.90
2023-05-06T07:22:29.197Z,99.90
2023-05-06T07:24:56.318Z,99.90
2023-05-06T07:27:24.372Z,99.90
2023-05-06T07:29:51.262Z,99.90
2023-05-06T07:32:18.148Z,99.90
2023-05-06T07:34:45.010Z,99.90
2023-05-06T07:37:11.854Z,99.90
2023-05-06T07:39:38.708Z,99.90
2023-05-06T07:42:05.741Z,99.90
2023-05-06T07:44:32.619Z,99.90
2023-05-06T07:47:00.745Z,99.90
2023-05-06T07:49:30.608Z,99.90
2023-05-06T07:51:57.473Z,99.90
2023-05-06T07:54:24.533Z,99.90
2023-05-06T07:56:54.713Z,99.90
2023-05-06T07:59:22.074Z,99.90
2023-05-06T08:01:48.979Z,99.90
2023-05-06T08:04:17.229Z,99.90
2023-05-06T08:06:44.637Z,99.90
2023-05-06T08:09:16.960Z,99.90
2023-05-06T08:11:46.686Z,99.90
2023-05-06T08:14:13.534Z,99.90
2023-05-06T08:16:41.946Z,99.90
2023-05-06T08:19:09.094Z,99.90
2023-05-06T08:21:35.943Z,99.90
2023-05-06T08:24:02.849Z,99.90
2023-05-06T08:26:29.720Z,99.90
2023-05-06T08:28:57.883Z,99.90
2023-05-06T08:31:29.970Z,99.90
2023-05-06T08:33:57.103Z,99.90
2023-05-06T08:38:51.326Z,99.90
2023-05-06T08:43:48.591Z,99.90
2023-05-06T08:46:16.260Z,99.90
2023-05-06T08:48:43.424Z,99.90
2023-05-06T08:51:16.154Z,99.90
2023-05-06T08:53:50.407Z,99.90
2023-05-06T08:56:18.367Z,99.90
2023-05-06T08:58:46.749Z,99.90
2023-05-06T09:01:14.406Z,99.90
2023-05-06T09:03:41.237Z,99.90
2023-05-06T09:06:09.238Z,99.90
2023-05-06T09:08:36.415Z,99.90
2023-05-06T09:11:03.228Z,99.90
2023-05-06T09:13:30.285Z,99.90
2023-05-06T09:15:57.214Z,99.90
2023-05-06T09:18:24.126Z,99.90
2023-05-06T09:20:51.076Z,99.90
2023-05-06T09:23:19.226Z,99.90
2023-05-06T09:25:47.582Z,99.90
2023-05-06T09:28:14.583Z,99.90
2023-05-06T09:30:42.844Z,99.90
2023-05-06T09:33:10.488Z,99.90
2023-05-06T09:35:39.416Z,99.90
2023-05-06T09:38:07.528Z,99.90
2023-05-06T09:43:04.158Z,99.90
2023-05-06T09:45:31.431Z,99.90
2023-05-06T09:47:59.134Z,99.90
2023-05-06T09:50:26.860Z,99.90
2023-05-06T09:52:55.730Z,99.90
2023-05-06T09:55:26.885Z,99.90
2023-05-06T09:57:54.806Z,99.90
2023-05-06T10:00:27.020Z,99.90
2023-05-06T10:02:57.859Z,99.90
2023-05-06T10:05:26.310Z,99.90
2023-05-06T10:07:54.789Z,99.90
2023-05-06T10:10:25.233Z,99.90
2023-05-06T10:12:52.753Z,99.90
2023-05-06T10:15:19.794Z,99.90
2023-05-06T10:17:48.999Z,99.90
2023-05-06T10:20:17.624Z,99.90
2023-05-06T10:22:49.203Z,99.90
2023-05-06T10:25:17.171Z,99.90
2023-05-06T10:27:45.987Z,99.90
2023-05-06T10:30:17.129Z,99.90
2023-05-06T10:32:45.437Z,99.90
2023-05-06T10:35:27.364Z,98.20
2023-05-06T10:37:56.702Z,99.60
2023-05-06T10:40:24.651Z,99.90
2023-05-06T10:42:51.681Z,97.70
2023-05-06T10:45:18.815Z,97.10
2023-05-06T10:48:02.591Z,96.80
2023-05-06T10:50:29.479Z,98.10
2023-05-06T10:52:59.079Z,94.70
2023-05-06T10:55:41.093Z,97.50
2023-05-06T10:58:16.057Z,97.90
2023-05-06T11:00:55.540Z,98.30
2023-05-06T11:03:24.217Z,98.40
2023-05-06T11:05:52.365Z,99.20
2023-05-06T11:08:23.627Z,98.60
2023-05-06T11:10:51.124Z,98.90
2023-05-06T11:13:22.651Z,99.90
2023-05-06T11:15:52.188Z,99.90
2023-05-06T11:18:30.981Z,99.90
2023-05-06T11:20:59.832Z,98.60
2023-05-06T11:23:43.595Z,99.20
2023-05-06T11:26:11.594Z,96.90
2023-05-06T11:28:39.646Z,96.50
2023-05-06T11:31:07.931Z,98.00
2023-05-06T11:33:37.398Z,97.60
2023-05-06T11:36:06.545Z,97.20
2023-05-06T11:38:51.351Z,97.40
2023-05-06T11:41:18.832Z,96.50
2023-05-06T11:43:50.084Z,96.00
2023-05-06T11:46:20.584Z,94.90
2023-05-06T11:48:48.103Z,94.10
2023-05-06T11:51:16.473Z,94.40
2023-05-06T11:53:46.541Z,93.30
2023-05-06T11:56:14.897Z,94.90
2023-05-06T11:58:42.883Z,95.00
2023-05-06T12:01:10.374Z,93.60
2023-05-06T12:03:37.667Z,94.10
2023-05-06T12:06:04.908Z,92.80
2023-05-06T12:08:34.951Z,92.10
2023-05-06T12:11:04.809Z,93.20
2023-05-06T12:13:35.282Z,91.90
2023-05-06T12:16:04.368Z,91.10
2023-05-06T12:18:31.590Z,92.10
2023-05-06T12:21:02.716Z,92.70
2023-05-06T12:23:32.103Z,93.20
2023-05-06T12:26:02.406Z,92.70
2023-05-06T12:28:30.469Z,91.80
2023-05-06T12:30:57.364Z,92.60
2023-05-06T12:33:24.384Z,94.80
2023-05-06T12:35:52.708Z,96.90
2023-05-06T12:38:19.553Z,97.70
2023-05-06T12:40:54.524Z,99.60
2023-05-06T12:43:30.364Z,97.20
2023-05-06T12:46:06.555Z,99.60
2023-05-06T12:48:33.851Z,99.90
2023-05-06T12:51:01.402Z,99.90
2023-05-06T12:53:33.812Z,99.90
2023-05-06T12:56:00.889Z,99.90
2023-05-06T12:58:27.665Z,99.90
2023-05-06T13:00:54.716Z,99.50
2023-05-06T13:03:22.010Z,99.00
2023-05-06T13:05:51.881Z,98.10
2023-05-06T13:08:19.163Z,96.50
2023-05-06T13:10:46.644Z,97.20
2023-05-06T13:13:13.531Z,98.30
2023-05-06T13:15:40.672Z,98.40
2023-05-06T13:18:08.525Z,97.10
2023-05-06T13:20:35.557Z,99.00
2023-05-06T13:23:03.384Z,98.50
2023-05-06T13:25:30.184Z,98.50
2023-05-06T13:27:59.944Z,97.60
2023-05-06T13:30:27.052Z,97.20
2023-05-06T13:32:53.995Z,98.50
2023-05-06T13:35:21.200Z,97.90
2023-05-06T13:37:47.911Z,84.10
2023-05-06T13:40:14.960Z,82.80
2023-05-06T13:42:43.941Z,82.30
2023-05-06T13:45:11.197Z,80.40
2023-05-06T13:47:38.361Z,84.00
2023-05-06T13:50:06.029Z,80.50
2023-05-06T13:52:33.109Z,81.10
2023-05-06T13:54:59.948Z,81.90
2023-05-06T13:57:26.995Z,81.10
2023-05-06T13:59:56.318Z,82.60
2023-05-06T14:02:23.350Z,83.60
2023-05-06T14:04:52.580Z,87.20
2023-05-06T14:07:19.531Z,87.90
2023-05-06T14:09:46.316Z,85.30
2023-05-06T14:12:13.105Z,83.90
2023-05-06T14:14:39.998Z,84.50
2023-05-06T14:17:06.977Z,90.70
2023-05-06T14:19:33.885Z,85.60
2023-05-06T14:22:00.872Z,87.70
2023-05-06T14:24:27.714Z,88.10
2023-05-06T14:26:54.842Z,87.10
2023-05-06T14:29:24.085Z,88.30
2023-05-06T14:31:51.118Z,90.30
2023-05-06T14:34:17.970Z,91.00
2023-05-06T14:36:44.967Z,89.90
2023-05-06T14:39:12.037Z,90.30
2023-05-06T14:41:41.370Z,91.90
2023-05-06T14:44:08.196Z,87.80
2023-05-06T14:46:35.098Z,87.50
2023-05-06T14:49:01.915Z,90.00
2023-05-06T14:51:28.878Z,89.80
2023-05-06T14:53:55.935Z,91.70
2023-05-06T14:56:22.839Z,91.30
2023-05-06T14:58:50.945Z,92.40
2023-05-06T15:01:17.951Z,92.00
2023-05-06T15:03:45.285Z,91.90
2023-05-06T15:06:13.942Z,90.70
2023-05-06T15:08:43.804Z,90.90
2023-05-06T15:11:10.978Z,90.80
2023-05-06T15:13:37.886Z,91.30
2023-05-06T15:16:05.190Z,91.20
2023-05-06T15:18:32.291Z,91.10
2023-05-06T15:21:01.518Z,90.50
2023-05-06T15:23:28.686Z,91.10
2023-05-06T15:25:58.224Z,91.80
2023-05-06T15:28:25.230Z,92.10
2023-05-06T15:30:52.073Z,91.50
2023-05-06T15:33:18.996Z,90.70
2023-05-06T15:35:46.219Z,91.10
2023-05-06T15:38:16.284Z,92.30
2023-05-06T15:40:50.888Z,93.30
2023-05-06T15:43:23.264Z,91.90
2023-05-06T15:45:51.146Z,92.50
2023-05-06T15:48:19.507Z,92.80
2023-05-06T15:50:46.270Z,93.30
2023-05-06T15:53:15.678Z,93.20
2023-05-06T15:55:46.418Z,92.90
2023-05-06T15:58:13.602Z,93.50
2023-05-06T16:00:40.446Z,93.20
2023-05-06T16:03:09.836Z,93.00
2023-05-06T16:05:38.942Z,93.00
2023-05-06T16:08:06.131Z,92.60
2023-05-06T16:10:35.482Z,93.90
2023-05-06T16:13:02.353Z,93.60
2023-05-06T16:15:29.216Z,93.40
2023-05-06T16:17:56.148Z,93.70
2023-05-06T16:20:23.257Z,93.10
2023-05-06T16:22:50.690Z,94.20
2023-05-06T16:25:17.775Z,94.10
2023-05-06T16:27:44.639Z,94.70
2023-05-06T16:30:12.091Z,94.20
2023-05-06T16:32:39.179Z,94.90
2023-05-06T16:35:06.173Z,93.60
2023-05-06T16:37:33.014Z,94.20
2023-05-06T16:39:59.906Z,94.30
2023-05-06T16:42:26.952Z,94.30
2023-05-06T16:44:54.232Z,94.80
2023-05-06T16:47:23.753Z,95.90
2023-05-06T16:49:51.036Z,95.80
2023-05-06T16:52:18.432Z,94.60
2023-05-06T16:54:45.518Z,95.20
2023-05-06T16:57:12.489Z,94.60
2023-05-06T16:59:39.291Z,94.80
2023-05-06T17:02:06.710Z,95.30
2023-05-06T17:04:33.514Z,95.00
2023-05-06T17:07:00.812Z,94.60
2023-05-06T17:09:27.583Z,95.10
2023-05-06T17:11:54.482Z,95.70
2023-05-06T17:14:21.294Z,95.80
2023-05-06T17:16:48.266Z,96.00
2023-05-06T17:19:15.210Z,96.60
2023-05-06T17:21:42.388Z,96.30
2023-05-06T17:24:09.632Z,96.60
2023-05-06T17:26:37.396Z,96.70
2023-05-06T17:29:04.749Z,96.80
2023-05-06T17:31:31.677Z,97.00
2023-05-06T17:33:58.498Z,96.90
2023-05-06T17:36:25.539Z,97.10
2023-05-06T17:39:02.839Z,97.50
2023-05-06T17:41:29.887Z,97.80
2023-05-06T17:43:56.867Z,98.30
2023-05-06T17:46:24.053Z,98.40
2023-05-06T17:48:51.115Z,99.20
2023-05-06T17:51:19.082Z,99.20
2023-05-06T17:53:47.018Z,99.50
2023-05-06T17:56:13.825Z,99.70
2023-05-06T17:58:41.098Z,99.90
2023-05-06T18:01:12.236Z,99.90
2023-05-06T18:03:40.141Z,99.90
2023-05-06T18:06:07.342Z,99.90
2023-05-06T18:08:37.183Z,99.90
2023-05-06T18:11:04.323Z,99.90
2023-05-06T18:13:37.579Z,99.90
2023-05-06T18:16:06.030Z,99.90
2023-05-06T18:18:32.919Z,99.90
2023-05-06T18:20:59.781Z,99.90
2023-05-06T18:23:26.749Z,99.90
2023-05-06T18:25:53.585Z,99.90
2023-05-06T18:28:20.658Z,99.90
2023-05-06T18:30:47.455Z,99.90
2023-05-06T18:33:14.581Z,99.90
2023-05-06T18:35:41.971Z,99.90
2023-05-06T18:38:09.643Z,99.90
2023-05-06T18:40:38.242Z,99.90
2023-05-06T18:43:08.123Z,99.90
2023-05-06T18:45:37.163Z,99.90
2023-05-06T18:48:05.039Z,99.90
2023-05-06T18:50:31.948Z,99.90
2023-05-06T18:52:58.799Z,99.90
2023-05-06T18:55:25.687Z,99.90
2023-05-06T18:57:52.562Z,99.90
2023-05-06T19:00:21.767Z,99.90
2023-05-06T19:02:49.208Z,99.90
2023-05-06T19:05:16.374Z,99.90
2023-05-06T19:07:43.452Z,99.90
2023-05-06T19:10:10.598Z,99.90
2023-05-06T19:12:37.476Z,99.90
2023-05-06T19:15:04.663Z,99.90
2023-05-06T19:17:31.513Z,99.90
2023-05-06T19:19:58.381Z,99.90
2023-05-06T19:22:25.519Z,99.90
2023-05-06T19:24:52.365Z,99.90
2023-05-06T19:27:19.223Z,99.90
2023-05-06T19:29:46.729Z,99.90
2023-05-06T19:32:13.557Z,99.90
2023-05-06T19:34:40.461Z,99.90
2023-05-06T19:37:07.501Z,99.90
2023-05-06T19:39:34.512Z,99.90
2023-05-06T19:42:01.559Z,99.90
2023-05-06T19:44:28.931Z,99.90
2023-05-06T19:46:55.814Z,99.90
2023-05-06T19:49:22.931Z,99.90
2023-05-06T19:51:50.095Z,99.90
2023-05-06T19:54:19.347Z,99.90
2023-05-06T19:56:46.374Z,99.90
2023-05-06T19:59:13.216Z,99.90
2023-05-06T20:01:40.437Z,99.90
2023-05-06T20:04:07.399Z,99.90
2023-05-06T20:06:34.925Z,99.90
2023-05-06T20:09:01.767Z,99.90
2023-05-06T20:11:28.639Z,99.90
2023-05-06T20:13:55.836Z,99.90
2023-05-06T20:16:23.014Z,99.90
2023-05-06T20:18:51.728Z,99.90
2023-05-06T20:21:18.597Z,99.90
2023-05-06T20:23:45.700Z,99.90
2023-05-06T20:26:12.592Z,99.90
2023-05-06T20:28:39.594Z,99.90
2023-05-06T20:31:07.376Z,99.90
2023-05-06T20:33:35.876Z,99.90
2023-05-06T20:36:04.223Z,99.90
2023-05-06T20:38:32.634Z,99.90
2023-05-06T20:41:02.831Z,99.90
2023-05-06T20:43:30.789Z,99.90
2023-05-06T20:45:57.976Z,99.90
2023-05-06T20:48:27.814Z,99.90
2023-05-06T20:50:57.522Z,99.90
2023-05-06T20:53:24.712Z,99.90
2023-05-06T20:55:52.277Z,99.90
2023-05-06T20:58:22.365Z,99.90
2023-05-06T21:00:52.417Z,99.90
2023-05-06T21:03:21.774Z,99.90
2023-05-06T21:05:48.718Z,99.90
2023-05-06T21:08:15.632Z,99.90
2023-05-06T21:10:42.447Z,99.90
2023-05-06T21:13:10.629Z,99.90
2023-05-06T21:15:38.270Z,99.90
2023-05-06T21:18:05.740Z,99.90
2023-05-06T21:20:32.930Z,99.90
2023-05-06T21:22:59.855Z,99.90
2023-05-06T21:25:26.810Z,99.90
2023-05-06T21:27:53.723Z,99.90
2023-05-06T21:30:22.256Z,99.90
2023-05-06T21:32:49.625Z,99.90
2023-05-06T21:35:17.786Z,99.90
2023-05-06T21:37:44.694Z,99.90
2023-05-06T21:40:12.742Z,99.90
2023-05-06T21:42:39.641Z,99.90
2023-05-06T21:45:08.071Z,99.90
2023-05-06T21:47:35.148Z,99.90
2023-05-06T21:50:02.271Z,99.90
2023-05-06T21:52:29.490Z,99.90
2023-05-06T21:54:56.727Z,99.90
2023-05-06T21:57:26.796Z,99.90
2023-05-06T21:59:53.672Z,99.90
2023-05-06T22:02:20.681Z,99.90
2023-05-06T22:04:47.629Z,99.90
2023-05-06T22:07:14.496Z,99.90
2023-05-06T22:09:41.246Z,99.90
2023-05-06T22:12:09.229Z,99.90
2023-05-06T22:14:40.986Z,99.90
2023-05-06T22:17:08.323Z,99.90
2023-05-06T22:19:35.136Z,99.90
2023-05-06T22:22:02.237Z,99.90
2023-05-06T22:24:29.076Z,99.90
2023-05-06T22:26:55.937Z,99.90
2023-05-06T22:29:22.932Z,99.90
2023-05-06T22:31:52.403Z,99.90
2023-05-06T22:34:19.118Z,99.90
2023-05-06T22:36:45.977Z,99.90
2023-05-06T22:39:13.935Z,99.90
2023-05-06T22:41:40.952Z,99.90
2023-05-06T22:44:08.009Z,99.90
2023-05-06T22:46:34.869Z,99.90
2023-05-06T22:49:06.775Z,99.90
2023-05-06T22:51:34.288Z,99.90
2023-05-06T22:54:01.158Z,99.90
2023-05-06T22:56:27.870Z,99.90
2023-05-06T22:58:54.685Z,99.90
2023-05-06T23:01:21.622Z,99.90
2023-05-06T23:03:48.524Z,99.90
2023-05-06T23:06:15.935Z,99.90
2023-05-06T23:08:44.392Z,99.90
2023-05-06T23:11:11.453Z,99.90
2023-05-06T23:13:38.462Z,99.90
2023-05-06T23:16:07.705Z,99.90
2023-05-06T23:18:34.690Z,99.90
2023-05-06T23:21:01.627Z,99.90
2023-05-06T23:23:29.870Z,99.90
2023-05-06T23:25:56.839Z,99.90
2023-05-06T23:28:24.830Z,99.90
2023-05-06T23:30:51.973Z,99.90
2023-05-06T23:33:18.773Z,99.90
2023-05-06T23:35:46.119Z,99.90
2023-05-06T23:38:13.004Z,99.90
2023-05-06T23:40:39.965Z,99.90
2023-05-06T23:43:09.844Z,99.90
2023-05-06T23:45:37.022Z,99.90
2023-05-06T23:48:04.199Z,99.90
2023-05-06T23:50:31.097Z,99.90
2023-05-06T23:52:57.850Z,99.90
2023-05-06T23:55:26.453Z,99.90
2023-05-06T23:57:53.313Z,99.90
